createdAt,value
2023-03-03T00:00:11.227Z,-1.85
2023-03-03T00:02:38.762Z,-1.87
2023-03-03T00:05:07.601Z,-1.80
2023-03-03T00:07:35.456Z,-1.89
2023-03-03T00:10:04.477Z,-1.89
2023-03-03T00:12:33.150Z,-1.93
2023-03-03T00:15:00.790Z,-1.96
2023-03-03T00:17:33.300Z,-1.96
2023-03-03T00:20:36.757Z,-1.95
2023-03-03T00:23:31.825Z,-1.97
2023-03-03T00:26:13.980Z,-1.97
2023-03-03T00:28:54.774Z,-1.92
2023-03-03T00:31:35.918Z,-1.98
2023-03-03T00:34:25.655Z,-1.95
2023-03-03T00:36:58.663Z,-1.98
2023-03-03T00:39:38.996Z,-2.02
2023-03-03T00:42:20.158Z,-1.89
2023-03-03T00:45:00.447Z,-1.96
2023-03-03T00:47:44.351Z,-1.78
2023-03-03T00:50:35.944Z,-1.92
2023-03-03T00:53:17.385Z,-1.94
2023-03-03T00:55:51.328Z,-1.98
2023-03-03T00:58:23.824Z,-1.98
2023-03-03T01:00:59.060Z,-1.90
2023-03-03T01:03:29.170Z,-1.91
2023-03-03T01:05:59.559Z,-2.01
2023-03-03T01:08:29.519Z,-2.01
2023-03-03T01:11:11.421Z,-1.95
2023-03-03T01:13:50.121Z,-2.06
2023-03-03T01:16:21.716Z,-2.11
2023-03-03T01:18:51.816Z,-2.09
2023-03-03T01:21:21.885Z,-1.98
2023-03-03T01:23:51.963Z,-2.04
2023-03-03T01:26:22.065Z,-1.99
2023-03-03T01:28:52.301Z,-1.97
2023-03-03T01:31:22.509Z,-1.98
2023-03-03T01:33:52.605Z,-2.00
2023-03-03T01:36:29.432Z,-2.03
2023-03-03T01:38:58.131Z,-2.07
2023-03-03T01:41:33.687Z,-1.97
2023-03-03T01:44:02.790Z,-2.01
2023-03-03T01:47:11.295Z,-2.07
2023-03-03T01:50:00.170Z,-2.15
2023-03-03T01:52:47.054Z,-2.17
2023-03-03T01:55:36.106Z,-2.10
2023-03-03T01:58:28.328Z,-2.13
2023-03-03T02:01:12.320Z,-2.06
2023-03-03T02:03:44.180Z,-2.10
2023-03-03T02:06:20.259Z,-2.12
2023-03-03T02:09:25.142Z,-2.07
2023-03-03T02:12:04.502Z,-2.17
2023-03-03T02:14:35.721Z,-2.11
2023-03-03T02:17:06.718Z,-2.06
2023-03-03T02:20:02.135Z,-2.01
2023-03-03T02:22:53.833Z,-1.99
2023-03-03T02:25:55.590Z,-2.15
2023-03-03T02:28:33.073Z,-2.27
2023-03-03T02:31:13.298Z,-2.05
2023-03-03T02:33:49.798Z,-2.14
2023-03-03T02:36:35.373Z,-2.11
2023-03-03T02:39:20.887Z,-2.29
2023-03-03T02:42:29.754Z,-2.39
2023-03-03T02:44:59.829Z,-2.43
2023-03-03T02:47:29.640Z,-2.50
2023-03-03T02:49:59.553Z,-2.48
2023-03-03T02:52:29.085Z,-2.55
2023-03-03T02:54:59.103Z,-2.60
2023-03-03T02:57:28.885Z,-2.50
2023-03-03T02:59:58.683Z,-2.58
2023-03-03T03:02:28.594Z,-2.67
2023-03-03T03:04:58.315Z,-2.49
2023-03-03T03:07:28.029Z,-2.55
2023-03-03T03:09:57.982Z,-2.53
2023-03-03T03:12:27.774Z,-2.72
2023-03-03T03:14:57.656Z,-2.70
2023-03-03T03:17:27.416Z,-2.67
2023-03-03T03:19:57.352Z,-2.59
2023-03-03T03:22:27.215Z,-2.70
2023-03-03T03:24:54.545Z,-2.44
2023-03-03T03:27:24.266Z,-2.44
2023-03-03T03:29:51.318Z,-2.61
2023-03-03T03:32:21.149Z,-2.46
2023-03-03T03:34:51.217Z,-2.59
2023-03-03T03:37:21.506Z,-2.68
2023-03-03T03:39:51.613Z,-2.64
2023-03-03T03:42:21.691Z,-2.57
2023-03-03T03:44:51.713Z,-2.69
2023-03-03T03:47:21.889Z,-2.62
2023-03-03T03:49:51.516Z,-2.61
2023-03-03T03:52:21.371Z,-2.65
2023-03-03T03:54:51.021Z,-2.58
2023-03-03T03:57:20.772Z,-2.58
2023-03-03T03:59:51.093Z,-2.69
2023-03-03T04:02:21.321Z,-2.63
2023-03-03T04:04:50.961Z,-2.60
2023-03-03T04:07:19.289Z,-2.72
2023-03-03T04:09:47.745Z,-2.51
2023-03-03T04:12:20.098Z,-2.56
2023-03-03T04:14:47.603Z,-2.55
2023-03-03T04:17:25.099Z,-2.61
2023-03-03T04:19:55.133Z,-2.68
2023-03-03T04:22:24.935Z,-2.75
2023-03-03T04:24:54.934Z,-2.60
2023-03-03T04:27:24.743Z,-2.60
2023-03-03T04:29:54.513Z,-2.69
2023-03-03T04:32:24.439Z,-2.63
2023-03-03T04:35:05.599Z,-2.59
2023-03-03T04:37:39.074Z,-2.79
2023-03-03T04:40:11.214Z,-2.84
2023-03-03T04:42:40.669Z,-2.84
2023-03-03T04:45:11.496Z,-2.83
2023-03-03T04:47:39.161Z,-2.78
2023-03-03T04:50:09.605Z,-2.77
2023-03-03T04:52:39.113Z,-2.74
2023-03-03T04:55:10.407Z,-2.76
2023-03-03T04:57:40.777Z,-2.82
2023-03-03T05:00:14.624Z,-2.84
2023-03-03T05:02:44.668Z,-2.82
2023-03-03T05:05:15.543Z,-2.82
2023-03-03T05:07:45.239Z,-2.77
2023-03-03T05:10:15.172Z,-2.80
2023-03-03T05:12:45.154Z,-2.86
2023-03-03T05:15:15.066Z,-2.82
2023-03-03T05:17:44.712Z,-3.00
2023-03-03T05:20:15.164Z,-2.99
2023-03-03T05:22:44.852Z,-2.83
2023-03-03T05:25:14.822Z,-2.78
2023-03-03T05:27:45.211Z,-2.87
2023-03-03T05:30:15.170Z,-2.90
2023-03-03T05:32:45.123Z,-2.92
2023-03-03T05:35:14.960Z,-2.91
2023-03-03T05:37:47.747Z,-2.98
2023-03-03T05:40:18.152Z,-2.94
2023-03-03T05:42:48.243Z,-2.97
2023-03-03T05:45:24.414Z,-2.87
2023-03-03T05:47:55.111Z,-2.79
2023-03-03T05:50:24.422Z,-2.78
2023-03-03T05:52:54.175Z,-2.84
2023-03-03T05:55:24.035Z,-2.79
2023-03-03T05:57:54.270Z,-2.84
2023-03-03T06:00:24.219Z,-2.81
2023-03-03T06:02:54.114Z,-2.83
2023-03-03T06:05:24.104Z,-2.80
2023-03-03T06:07:53.911Z,-2.60
2023-03-03T06:10:23.881Z,-2.72
2023-03-03T06:12:55.162Z,-2.75
2023-03-03T06:15:24.066Z,-2.43
2023-03-03T06:17:54.197Z,-2.46
2023-03-03T06:20:24.114Z,-2.68
2023-03-03T06:22:53.903Z,-2.72
2023-03-03T06:25:23.989Z,-2.47
2023-03-03T06:27:54.080Z,-2.62
2023-03-03T06:30:23.876Z,-2.53
2023-03-03T06:32:54.080Z,-2.52
2023-03-03T06:35:23.539Z,-2.66
2023-03-03T06:37:53.803Z,-2.64
2023-03-03T06:40:23.731Z,-2.50
2023-03-03T06:42:53.852Z,-2.49
2023-03-03T06:45:23.583Z,-2.52
2023-03-03T06:47:53.391Z,-2.54
2023-03-03T06:50:23.167Z,-2.61
2023-03-03T06:53:15.417Z,-2.51
2023-03-03T06:55:46.067Z,-2.41
2023-03-03T06:58:22.220Z,-2.38
2023-03-03T07:01:01.765Z,-2.39
2023-03-03T07:03:35.547Z,-2.52
2023-03-03T07:06:28.322Z,-2.39
2023-03-03T07:08:58.151Z,-2.42
2023-03-03T07:11:27.790Z,-2.44
2023-03-03T07:13:57.784Z,-2.52
2023-03-03T07:16:28.904Z,-2.53
2023-03-03T07:19:03.364Z,-2.59
2023-03-03T07:21:38.901Z,-2.61
2023-03-03T07:24:30.674Z,-2.46
2023-03-03T07:27:21.213Z,-2.47
2023-03-03T07:30:17.210Z,-2.28
2023-03-03T07:32:48.634Z,-2.20
2023-03-03T07:35:45.169Z,-2.36
2023-03-03T07:38:37.160Z,-2.26
2023-03-03T07:41:20.990Z,-2.31
2023-03-03T07:44:00.250Z,-2.30
2023-03-03T07:46:43.839Z,-2.32
2023-03-03T07:49:36.031Z,-2.12
2023-03-03T07:52:56.827Z,-2.02
2023-03-03T07:55:41.067Z,-2.08
2023-03-03T07:58:17.206Z,-2.20
2023-03-03T08:01:43.752Z,-2.14
2023-03-03T08:05:40.414Z,-2.05
2023-03-03T08:08:10.365Z,-2.14
2023-03-03T08:11:09.936Z,-2.13
2023-03-03T08:13:45.679Z,-2.03
2023-03-03T08:16:15.659Z,-2.06
2023-03-03T08:18:51.500Z,-2.13
2023-03-03T08:21:26.411Z,-2.07
2023-03-03T08:23:56.464Z,-1.97
2023-03-03T08:26:27.524Z,-1.91
2023-03-03T08:28:57.768Z,-1.93
2023-03-03T08:31:40.368Z,-1.97
2023-03-03T08:34:11.080Z,-1.94
2023-03-03T08:36:43.963Z,-1.80
2023-03-03T08:39:14.094Z,-1.87
2023-03-03T08:41:44.574Z,-1.82
2023-03-03T08:44:14.604Z,-1.81
2023-03-03T08:46:44.675Z,-1.77
2023-03-03T08:49:14.971Z,-1.59
2023-03-03T08:51:43.432Z,-1.49
2023-03-03T08:54:11.880Z,-1.61
2023-03-03T08:56:40.468Z,-1.58
2023-03-03T08:59:08.803Z,-1.51
2023-03-03T09:01:38.833Z,-1.48
2023-03-03T09:04:06.452Z,-1.40
2023-03-03T09:06:35.133Z,-1.48
2023-03-03T09:09:04.857Z,-1.41
2023-03-03T09:11:32.753Z,-1.36
2023-03-03T09:14:20.756Z,-1.19
2023-03-03T09:16:55.083Z,-1.17
2023-03-03T09:19:33.372Z,-1.28
2023-03-03T09:22:24.870Z,-1.20
2023-03-03T09:25:00.301Z,-1.07
2023-03-03T09:27:37.245Z,-1.11
2023-03-03T09:30:37.438Z,-0.92
2023-03-03T09:33:49.902Z,-0.79
2023-03-03T09:36:39.078Z,-0.72
2023-03-03T09:39:27.018Z,-0.63
2023-03-03T09:42:43.384Z,-0.57
2023-03-03T09:46:17.961Z,-0.57
2023-03-03T09:49:26.565Z,-0.57
2023-03-03T09:52:46.607Z,-0.51
2023-03-03T09:55:43.670Z,-0.51
2023-03-03T09:58:52.938Z,-0.39
2023-03-03T10:02:07.596Z,-0.33
2023-03-03T10:05:30.179Z,-0.29
2023-03-03T10:08:46.221Z,-0.16
2023-03-03T10:11:46.269Z,-0.03
2023-03-03T10:14:51.839Z,0.08
2023-03-03T10:17:54.051Z,0.13
2023-03-03T10:20:51.240Z,0.45
2023-03-03T10:23:58.879Z,0.38
2023-03-03T10:27:19.579Z,0.45
2023-03-03T10:31:04.107Z,0.39
2023-03-03T10:34:36.244Z,0.34
2023-03-03T10:37:46.809Z,0.55
2023-03-03T10:40:43.422Z,0.34
2023-03-03T10:44:04.545Z,0.15
2023-03-03T10:46:58.844Z,0.31
2023-03-03T10:50:11.554Z,0.37
2023-03-03T10:53:09.248Z,0.42
2023-03-03T10:56:11.586Z,0.57
2023-03-03T10:59:38.205Z,0.66
2023-03-03T11:02:53.592Z,0.83
2023-03-03T11:06:10.898Z,0.76
2023-03-03T11:08:59.927Z,0.72
2023-03-03T11:11:55.563Z,0.69
2023-03-03T11:14:47.968Z,0.71
2023-03-03T11:18:12.173Z,1.02
2023-03-03T11:21:06.339Z,1.23
2023-03-03T11:24:05.389Z,1.09
2023-03-03T11:27:43.963Z,1.14
2023-03-03T11:30:39.228Z,0.94
2023-03-03T11:33:54.237Z,1.18
2023-03-03T11:36:52.116Z,1.01
2023-03-03T11:39:27.795Z,0.94
2023-03-03T11:42:28.716Z,1.03
2023-03-03T11:45:37.706Z,1.00
2023-03-03T11:48:56.841Z,1.06
2023-03-03T11:52:01.829Z,1.27
2023-03-03T11:55:29.520Z,1.25
2023-03-03T11:58:27.009Z,1.16
2023-03-03T12:01:26.499Z,0.96
2023-03-03T12:04:16.274Z,1.08
2023-03-03T12:07:28.961Z,1.17
2023-03-03T12:10:40.289Z,1.34
2023-03-03T12:13:39.211Z,1.62
2023-03-03T12:16:47.144Z,1.72
2023-03-03T12:20:21.598Z,1.74
2023-03-03T12:23:31.610Z,1.92
2023-03-03T12:26:31.800Z,1.89
2023-03-03T12:29:36.819Z,1.92
2023-03-03T12:33:08.225Z,1.92
2023-03-03T12:36:30.029Z,1.85
2023-03-03T12:39:40.965Z,1.66
2023-03-03T12:42:34.432Z,1.77
2023-03-03T12:45:33.423Z,1.65
2023-03-03T12:48:35.775Z,1.79
2023-03-03T12:51:46.962Z,2.02
2023-03-03T12:54:37.517Z,1.72
2023-03-03T12:57:58.253Z,1.88
2023-03-03T13:00:43.603Z,1.90
2023-03-03T13:04:19.896Z,1.99
2023-03-03T13:07:27.933Z,1.95
2023-03-03T13:10:41.991Z,2.00
2023-03-03T13:13:38.639Z,2.01
2023-03-03T13:17:00.017Z,2.18
2023-03-03T13:19:58.217Z,1.93
2023-03-03T13:23:09.431Z,1.94
2023-03-03T13:26:07.030Z,2.07
2023-03-03T13:28:57.666Z,2.23
2023-03-03T13:31:41.212Z,2.20
2023-03-03T13:34:32.563Z,2.17
2023-03-03T13:37:22.669Z,2.13
2023-03-03T13:40:10.795Z,2.14
2023-03-03T13:42:53.335Z,2.15
2023-03-03T13:46:05.779Z,2.01
2023-03-03T13:49:25.543Z,2.07
2023-03-03T13:52:26.801Z,2.02
2023-03-03T13:55:39.286Z,2.10
2023-03-03T13:58:35.473Z,2.20
2023-03-03T14:02:20.375Z,2.30
2023-03-03T14:05:28.727Z,2.46
2023-03-03T14:08:46.658Z,2.47
2023-03-03T14:11:39.030Z,2.54
2023-03-03T14:14:45.189Z,2.65
2023-03-03T14:17:18.035Z,2.64
2023-03-03T14:20:03.691Z,2.60
2023-03-03T14:22:40.060Z,2.60
2023-03-03T14:25:15.873Z,2.40
2023-03-03T14:27:48.918Z,2.38
2023-03-03T14:30:37.692Z,2.42
2023-03-03T14:33:09.994Z,2.50
2023-03-03T14:36:05.604Z,2.62
2023-03-03T14:38:35.542Z,2.50
2023-03-03T14:41:22.684Z,2.55
2023-03-03T14:44:24.263Z,2.56
2023-03-03T14:47:24.627Z,2.63
2023-03-03T14:50:00.492Z,2.91
2023-03-03T14:52:35.107Z,2.72
2023-03-03T14:55:53.313Z,2.74
2023-03-03T14:58:39.400Z,2.85
2023-03-03T15:01:35.347Z,2.81
2023-03-03T15:04:27.551Z,2.82
2023-03-03T15:06:59.108Z,2.81
2023-03-03T15:09:51.375Z,2.85
2023-03-03T15:12:43.236Z,2.94
2023-03-03T15:15:19.920Z,2.84
2023-03-03T15:18:05.354Z,2.81
2023-03-03T15:20:47.051Z,2.79
2023-03-03T15:23:35.192Z,2.76
2023-03-03T15:26:19.742Z,2.74
2023-03-03T15:29:05.995Z,2.89
2023-03-03T15:32:30.689Z,2.75
2023-03-03T15:35:56.208Z,2.72
2023-03-03T15:38:52.087Z,2.88
2023-03-03T15:42:13.413Z,2.89
2023-03-03T15:45:33.853Z,2.80
2023-03-03T15:48:42.386Z,2.79
2023-03-03T15:51:50.811Z,2.67
2023-03-03T15:55:38.266Z,2.65
2023-03-03T15:58:49.263Z,2.68
2023-03-03T16:01:22.013Z,2.77
2023-03-03T16:04:20.507Z,2.73
2023-03-03T16:07:47.025Z,2.85
2023-03-03T16:10:57.176Z,2.71
2023-03-03T16:14:01.845Z,2.62
2023-03-03T16:16:51.853Z,2.62
2023-03-03T16:19:59.783Z,2.52
2023-03-03T16:23:12.389Z,2.62
2023-03-03T16:26:09.259Z,2.64
2023-03-03T16:29:09.582Z,2.51
2023-03-03T16:32:11.694Z,2.34
2023-03-03T16:34:55.715Z,2.28
2023-03-03T16:37:51.304Z,2.42
2023-03-03T16:40:52.677Z,2.32
2023-03-03T16:43:40.550Z,2.13
2023-03-03T16:46:41.269Z,2.07
2023-03-03T16:49:44.085Z,2.09
2023-03-03T16:52:32.721Z,2.14
2023-03-03T16:55:20.156Z,2.07
2023-03-03T16:58:37.815Z,1.91
2023-03-03T17:02:15.116Z,1.86
2023-03-03T17:05:00.544Z,1.80
2023-03-03T17:08:39.314Z,1.69
2023-03-03T17:12:31.663Z,1.61
2023-03-03T17:15:12.828Z,1.73
2023-03-03T17:18:25.753Z,1.55
2023-03-03T17:21:02.418Z,1.41
2023-03-03T17:24:04.730Z,1.38
2023-03-03T17:27:14.832Z,1.32
2023-03-03T17:31:02.718Z,1.24
2023-03-03T17:33:57.466Z,1.19
2023-03-03T17:36:55.075Z,1.15
2023-03-03T17:39:50.546Z,1.13
2023-03-03T17:43:53.431Z,1.21
2023-03-03T17:47:06.898Z,1.26
2023-03-03T17:50:31.908Z,1.15
2023-03-03T17:53:33.658Z,1.08
2023-03-03T17:56:39.764Z,1.06
2023-03-03T17:59:30.951Z,1.16
2023-03-03T18:02:50.453Z,1.23
2023-03-03T18:06:20.300Z,1.18
2023-03-03T18:09:35.990Z,1.22
2023-03-03T18:13:07.951Z,1.19
2023-03-03T18:16:14.787Z,1.16
2023-03-03T18:19:09.240Z,1.08
2023-03-03T18:21:53.690Z,1.09
2023-03-03T18:24:50.214Z,1.05
2023-03-03T18:27:32.692Z,1.03
2023-03-03T18:30:17.604Z,1.00
2023-03-03T18:32:55.887Z,1.00
2023-03-03T18:35:46.112Z,1.00
2023-03-03T18:38:17.990Z,1.21
2023-03-03T18:41:22.373Z,1.22
2023-03-03T18:44:22.802Z,1.16
2023-03-03T18:46:55.437Z,1.13
2023-03-03T18:50:30.044Z,1.08
2023-03-03T18:53:34.623Z,1.11
2023-03-03T18:56:12.201Z,1.13
2023-03-03T18:58:45.595Z,1.15
2023-03-03T19:01:44.385Z,1.13
2023-03-03T19:04:16.303Z,1.07
2023-03-03T19:06:49.751Z,1.15
2023-03-03T19:10:19.147Z,1.18
2023-03-03T19:13:00.339Z,1.15
2023-03-03T19:15:30.396Z,1.11
2023-03-03T19:18:23.930Z,1.38
2023-03-03T19:21:12.058Z,1.28
2023-03-03T19:24:01.670Z,1.40
2023-03-03T19:27:23.081Z,1.38
2023-03-03T19:30:42.229Z,1.25
2023-03-03T19:34:14.618Z,1.33
2023-03-03T19:37:30.157Z,1.32
2023-03-03T19:40:34.377Z,1.24
2023-03-03T19:43:42.354Z,1.25
2023-03-03T19:46:34.657Z,1.43
2023-03-03T19:50:10.656Z,1.46
2023-03-03T19:53:14.777Z,1.33
2023-03-03T19:56:47.073Z,1.47
2023-03-03T20:00:15.900Z,1.67
2023-03-03T20:03:22.297Z,1.62
2023-03-03T20:06:32.288Z,1.52
2023-03-03T20:09:19.088Z,1.48
2023-03-03T20:12:21.535Z,1.52
2023-03-03T20:15:09.740Z,1.57
2023-03-03T20:18:37.296Z,1.57
2023-03-03T20:22:04.573Z,1.60
2023-03-03T20:25:22.442Z,1.53
2023-03-03T20:28:26.427Z,1.60
2023-03-03T20:31:36.673Z,1.54
2023-03-03T20:34:40.858Z,1.55
2023-03-03T20:37:30.705Z,1.55
2023-03-03T20:40:20.558Z,1.61
2023-03-03T20:43:50.463Z,1.71
2023-03-03T20:47:18.293Z,1.60
2023-03-03T20:50:45.429Z,1.72
2023-03-03T20:54:23.073Z,1.63
2023-03-03T20:57:33.865Z,1.78
2023-03-03T21:00:18.888Z,1.63
2023-03-03T21:03:26.133Z,1.71
2023-03-03T21:06:00.445Z,1.59
2023-03-03T21:08:59.854Z,1.69
2023-03-03T21:11:32.547Z,1.70
2023-03-03T21:14:27.603Z,1.76
2023-03-03T21:17:26.685Z,1.76
2023-03-03T21:20:32.370Z,1.70
2023-03-03T21:23:03.821Z,1.92
2023-03-03T21:25:41.640Z,1.88
2023-03-03T21:28:19.184Z,1.90
2023-03-03T21:31:15.749Z,1.76
2023-03-03T21:33:58.599Z,1.90
2023-03-03T21:36:32.927Z,1.79
2023-03-03T21:39:27.883Z,1.82
2023-03-03T21:42:18.345Z,1.88
2023-03-03T21:44:51.285Z,1.77
2023-03-03T21:47:28.174Z,1.81
2023-03-03T21:49:57.108Z,1.68
2023-03-03T21:52:24.489Z,1.73
2023-03-03T21:54:54.303Z,1.74
2023-03-03T21:57:25.170Z,1.72
2023-03-03T21:59:55.214Z,1.54
2023-03-03T22:02:25.026Z,1.48
2023-03-03T22:04:54.926Z,1.42
2023-03-03T22:07:25.179Z,1.42
2023-03-03T22:09:55.057Z,1.33
2023-03-03T22:12:24.951Z,1.34
2023-03-03T22:14:54.867Z,1.30
2023-03-03T22:17:25.643Z,1.20
2023-03-03T22:19:55.925Z,1.16
2023-03-03T22:22:25.850Z,1.24
2023-03-03T22:24:55.582Z,1.46
2023-03-03T22:27:25.486Z,1.23
2023-03-03T22:29:55.345Z,1.36
2023-03-03T22:32:25.583Z,1.32
2023-03-03T22:34:55.587Z,1.30
2023-03-03T22:37:25.036Z,1.25
2023-03-03T22:39:53.338Z,1.36
2023-03-03T22:42:23.521Z,1.29
2023-03-03T22:44:53.210Z,1.35
2023-03-03T22:47:21.799Z,1.19
2023-03-03T22:49:51.552Z,1.15
2023-03-03T22:52:21.401Z,1.18
2023-03-03T22:54:51.393Z,1.15
2023-03-03T22:57:21.233Z,1.07
2023-03-03T22:59:51.464Z,1.04
2023-03-03T23:02:21.515Z,1.14
2023-03-03T23:04:58.174Z,1.09
2023-03-03T23:07:29.456Z,1.03
2023-03-03T23:09:59.235Z,1.03
2023-03-03T23:12:28.062Z,1.30
2023-03-03T23:14:56.282Z,1.16
2023-03-03T23:17:25.104Z,1.08
2023-03-03T23:19:52.872Z,0.98
2023-03-03T23:22:21.308Z,0.97
2023-03-03T23:24:49.748Z,1.01
2023-03-03T23:27:18.274Z,0.90
2023-03-03T23:29:46.702Z,0.73
2023-03-03T23:32:15.154Z,0.78
2023-03-03T23:34:43.638Z,0.52
2023-03-03T23:37:11.924Z,0.37
2023-03-03T23:39:41.130Z,0.28
2023-03-03T23:42:14.633Z,0.28
2023-03-03T23:44:45.537Z,0.18
2023-03-03T23:47:15.608Z,0.03
2023-03-03T23:49:45.384Z,-0.03
2023-03-03T23:52:15.743Z,0.09
2023-03-03T23:54:46.364Z,0.04
2023-03-03T23:57:16.111Z,-0.13
2023-03-03T23:59:45.957Z,-0.21
